sensor_id;sensor_type;location;lat;lon;timestamp;P1;durP1;ratioP1;P2;durP2;ratioP2
41514;SDS011;27247;48.020;16.720;2023-04-03T00:03:01;6.35;;;3.63;;
41514;SDS011;27247;48.020;16.720;2023-04-03T00:07:11;6.00;;;4.00;;
41514;SDS011;27247;48.020;16.720;2023-04-03T00:11:22;5.20;;;3.97;;
41514;SDS011;27247;48.020;16.720;2023-04-03T00:15:33;8.90;;;3.80;;
41514;SDS011;27247;48.020;16.720;2023-04-03T00:19:44;4.63;;;3.75;;
41514;SDS011;27247;48.020;16.720;2023-04-03T00:23:55;6.90;;;4.22;;
41514;SDS011;27247;48.020;16.720;2023-04-03T00:28:05;5.85;;;4.07;;
41514;SDS011;27247;48.020;16.720;2023-04-03T00:32:16;6.63;;;4.10;;
41514;SDS011;27247;48.020;16.720;2023-04-03T00:36:26;7.90;;;4.63;;
41514;SDS011;27247;48.020;16.720;2023-04-03T00:40:37;6.20;;;4.23;;
41514;SDS011;27247;48.020;16.720;2023-04-03T00:49:08;7.28;;;4.70;;
41514;SDS011;27247;48.020;16.720;2023-04-03T00:53:19;6.88;;;4.45;;
41514;SDS011;27247;48.020;16.720;2023-04-03T00:57:34;13.38;;;4.68;;
41514;SDS011;27247;48.020;16.720;2023-04-03T01:01:45;6.38;;;4.15;;
41514;SDS011;27247;48.020;16.720;2023-04-03T01:05:55;5.93;;;4.15;;
41514;SDS011;27247;48.020;16.720;2023-04-03T01:10:07;6.78;;;4.82;;
41514;SDS011;27247;48.020;16.720;2023-04-03T01:14:20;8.10;;;4.28;;
41514;SDS011;27247;48.020;16.720;2023-04-03T01:18:30;8.68;;;4.07;;
41514;SDS011;27247;48.020;16.720;2023-04-03T01:27:09;5.35;;;3.83;;
41514;SDS011;27247;48.020;16.720;2023-04-03T01:31:22;7.60;;;4.07;;
41514;SDS011;27247;48.020;16.720;2023-04-03T01:35:37;5.13;;;3.78;;
41514;SDS011;27247;48.020;16.720;2023-04-03T01:39:47;7.00;;;3.83;;
41514;SDS011;27247;48.020;16.720;2023-04-03T01:43:58;5.85;;;3.42;;
41514;SDS011;27247;48.020;16.720;2023-04-03T01:48:08;7.70;;;3.78;;
41514;SDS011;27247;48.020;16.720;2023-04-03T01:52:18;7.95;;;3.67;;
41514;SDS011;27247;48.020;16.720;2023-04-03T01:56:29;6.32;;;3.55;;
41514;SDS011;27247;48.020;16.720;2023-04-03T02:00:39;6.90;;;3.78;;
41514;SDS011;27247;48.020;16.720;2023-04-03T02:04:49;7.77;;;3.93;;
41514;SDS011;27247;48.020;16.720;2023-04-03T02:09:00;5.70;;;3.77;;
41514;SDS011;27247;48.020;16.720;2023-04-03T02:13:10;5.85;;;3.53;;
41514;SDS011;27247;48.020;16.720;2023-04-03T02:17:21;7.28;;;4.38;;
41514;SDS011;27247;48.020;16.720;2023-04-03T02:21:31;5.85;;;3.95;;
41514;SDS011;27247;48.020;16.720;2023-04-03T02:25:42;4.90;;;3.85;;
41514;SDS011;27247;48.020;16.720;2023-04-03T02:29:52;7.13;;;4.10;;
41514;SDS011;27247;48.020;16.720;2023-04-03T02:34:02;7.90;;;4.60;;
41514;SDS011;27247;48.020;16.720;2023-04-03T02:38:13;6.77;;;4.90;;
41514;SDS011;27247;48.020;16.720;2023-04-03T02:42:23;6.70;;;4.63;;
41514;SDS011;27247;48.020;16.720;2023-04-03T02:46:33;5.50;;;4.70;;
41514;SDS011;27247;48.020;16.720;2023-04-03T02:50:44;8.00;;;4.90;;
41514;SDS011;27247;48.020;16.720;2023-04-03T02:54:54;8.68;;;5.22;;
41514;SDS011;27247;48.020;16.720;2023-04-03T02:59:04;6.28;;;5.05;;
41514;SDS011;27247;48.020;16.720;2023-04-03T03:03:16;8.38;;;5.20;;
41514;SDS011;27247;48.020;16.720;2023-04-03T03:07:26;8.63;;;5.05;;
41514;SDS011;27247;48.020;16.720;2023-04-03T03:11:36;8.25;;;4.88;;
41514;SDS011;27247;48.020;16.720;2023-04-03T03:15:47;10.63;;;5.37;;
41514;SDS011;27247;48.020;16.720;2023-04-03T03:19:57;11.13;;;5.68;;
41514;SDS011;27247;48.020;16.720;2023-04-03T03:24:07;10.65;;;6.43;;
41514;SDS011;27247;48.020;16.720;2023-04-03T03:28:18;8.63;;;6.07;;
41514;SDS011;27247;48.020;16.720;2023-04-03T03:32:28;9.13;;;6.27;;
41514;SDS011;27247;48.020;16.720;2023-04-03T03:36:38;8.60;;;6.30;;
41514;SDS011;27247;48.020;16.720;2023-04-03T03:40:50;11.27;;;6.82;;
41514;SDS011;27247;48.020;16.720;2023-04-03T03:45:00;11.05;;;7.05;;
41514;SDS011;27247;48.020;16.720;2023-04-03T03:49:11;9.82;;;6.97;;
41514;SDS011;27247;48.020;16.720;2023-04-03T03:53:22;8.63;;;6.25;;
41514;SDS011;27247;48.020;16.720;2023-04-03T03:57:32;8.75;;;5.90;;
41514;SDS011;27247;48.020;16.720;2023-04-03T04:01:42;9.00;;;5.80;;
41514;SDS011;27247;48.020;16.720;2023-04-03T04:05:53;8.20;;;5.82;;
41514;SDS011;27247;48.020;16.720;2023-04-03T04:10:03;8.35;;;5.45;;
41514;SDS011;27247;48.020;16.720;2023-04-03T04:14:14;7.35;;;4.63;;
41514;SDS011;27247;48.020;16.720;2023-04-03T04:18:25;5.75;;;4.10;;
41514;SDS011;27247;48.020;16.720;2023-04-03T04:22:35;6.43;;;3.88;;
41514;SDS011;27247;48.020;16.720;2023-04-03T04:26:45;4.45;;;3.45;;
41514;SDS011;27247;48.020;16.720;2023-04-03T04:30:56;5.43;;;3.70;;
41514;SDS011;27247;48.020;16.720;2023-04-03T04:35:06;4.97;;;3.70;;
41514;SDS011;27247;48.020;16.720;2023-04-03T04:39:17;4.65;;;3.17;;
41514;SDS011;27247;48.020;16.720;2023-04-03T04:43:27;6.40;;;3.70;;
41514;SDS011;27247;48.020;16.720;2023-04-03T04:47:38;6.22;;;3.85;;
41514;SDS011;27247;48.020;16.720;2023-04-03T04:51:48;5.37;;;3.97;;
41514;SDS011;27247;48.020;16.720;2023-04-03T04:55:58;7.88;;;4.25;;
41514;SDS011;27247;48.020;16.720;2023-04-03T05:00:09;6.18;;;4.13;;
41514;SDS011;27247;48.020;16.720;2023-04-03T05:04:20;5.30;;;3.72;;
41514;SDS011;27247;48.020;16.720;2023-04-03T05:08:30;5.80;;;3.72;;
41514;SDS011;27247;48.020;16.720;2023-04-03T05:12:41;5.20;;;3.92;;
41514;SDS011;27247;48.020;16.720;2023-04-03T05:16:51;6.93;;;4.63;;
41514;SDS011;27247;48.020;16.720;2023-04-03T05:21:03;8.00;;;4.28;;
41514;SDS011;27247;48.020;16.720;2023-04-03T05:25:14;5.63;;;3.67;;
41514;SDS011;27247;48.020;16.720;2023-04-03T05:29:25;6.15;;;4.68;;
41514;SDS011;27247;48.020;16.720;2023-04-03T05:33:35;4.93;;;3.60;;
41514;SDS011;27247;48.020;16.720;2023-04-03T05:37:45;5.68;;;3.65;;
41514;SDS011;27247;48.020;16.720;2023-04-03T05:41:56;4.95;;;3.67;;
41514;SDS011;27247;48.020;16.720;2023-04-03T05:46:13;5.07;;;3.97;;
41514;SDS011;27247;48.020;16.720;2023-04-03T05:50:25;5.70;;;3.85;;
41514;SDS011;27247;48.020;16.720;2023-04-03T05:54:36;16.08;;;9.40;;
41514;SDS011;27247;48.020;16.720;2023-04-03T05:58:46;7.00;;;4.38;;
41514;SDS011;27247;48.020;16.720;2023-04-03T06:02:56;5.43;;;3.65;;
41514;SDS011;27247;48.020;16.720;2023-04-03T06:07:07;6.77;;;4.30;;
41514;SDS011;27247;48.020;16.720;2023-04-03T06:11:25;8.85;;;4.65;;
41514;SDS011;27247;48.020;16.720;2023-04-03T06:15:36;6.72;;;4.28;;
41514;SDS011;27247;48.020;16.720;2023-04-03T06:19:46;9.02;;;4.63;;
41514;SDS011;27247;48.020;16.720;2023-04-03T06:23:57;8.77;;;4.68;;
41514;SDS011;27247;48.020;16.720;2023-04-03T06:28:08;7.18;;;4.38;;
41514;SDS011;27247;48.020;16.720;2023-04-03T06:32:20;8.75;;;4.57;;
41514;SDS011;27247;48.020;16.720;2023-04-03T06:36:30;9.48;;;4.55;;
41514;SDS011;27247;48.020;16.720;2023-04-03T06:40:40;6.95;;;4.50;;
41514;SDS011;27247;48.020;16.720;2023-04-03T06:44:50;5.80;;;3.80;;
41514;SDS011;27247;48.020;16.720;2023-04-03T06:49:01;9.38;;;5.00;;
41514;SDS011;27247;48.020;16.720;2023-04-03T06:53:11;10.18;;;4.93;;
41514;SDS011;27247;48.020;16.720;2023-04-03T06:57:22;6.90;;;4.82;;
41514;SDS011;27247;48.020;16.720;2023-04-03T07:01:33;6.70;;;4.90;;
41514;SDS011;27247;48.020;16.720;2023-04-03T07:05:43;6.07;;;4.50;;
41514;SDS011;27247;48.020;16.720;2023-04-03T07:09:54;8.70;;;4.75;;
41514;SDS011;27247;48.020;16.720;2023-04-03T07:14:05;8.13;;;4.60;;
41514;SDS011;27247;48.020;16.720;2023-04-03T07:18:16;13.38;;;5.68;;
41514;SDS011;27247;48.020;16.720;2023-04-03T07:22:27;11.93;;;5.32;;
41514;SDS011;27247;48.020;16.720;2023-04-03T07:26:37;8.80;;;4.97;;
41514;SDS011;27247;48.020;16.720;2023-04-03T07:30:49;9.55;;;5.30;;
41514;SDS011;27247;48.020;16.720;2023-04-03T07:35:01;6.65;;;4.50;;
41514;SDS011;27247;48.020;16.720;2023-04-03T07:39:11;10.90;;;4.85;;
41514;SDS011;27247;48.020;16.720;2023-04-03T07:43:22;9.10;;;4.70;;
41514;SDS011;27247;48.020;16.720;2023-04-03T07:47:34;9.35;;;5.05;;
41514;SDS011;27247;48.020;16.720;2023-04-03T07:51:46;10.95;;;5.18;;
41514;SDS011;27247;48.020;16.720;2023-04-03T07:55:57;6.00;;;4.35;;
41514;SDS011;27247;48.020;16.720;2023-04-03T08:00:08;10.55;;;4.93;;
41514;SDS011;27247;48.020;16.720;2023-04-03T08:04:19;6.50;;;4.40;;
41514;SDS011;27247;48.020;16.720;2023-04-03T08:08:30;6.53;;;4.00;;
41514;SDS011;27247;48.020;16.720;2023-04-03T08:12:40;5.80;;;3.58;;
41514;SDS011;27247;48.020;16.720;2023-04-03T08:16:51;7.82;;;4.05;;
41514;SDS011;27247;48.020;16.720;2023-04-03T08:21:05;6.30;;;4.22;;
41514;SDS011;27247;48.020;16.720;2023-04-03T08:25:16;8.80;;;4.13;;
41514;SDS011;27247;48.020;16.720;2023-04-03T08:29:27;10.88;;;4.95;;
41514;SDS011;27247;48.020;16.720;2023-04-03T08:33:38;7.30;;;3.70;;
41514;SDS011;27247;48.020;16.720;2023-04-03T08:37:49;6.65;;;3.63;;
41514;SDS011;27247;48.020;16.720;2023-04-03T08:42:00;9.55;;;4.20;;
41514;SDS011;27247;48.020;16.720;2023-04-03T08:46:17;7.30;;;4.10;;
41514;SDS011;27247;48.020;16.720;2023-04-03T08:50:33;6.68;;;4.20;;
41514;SDS011;27247;48.020;16.720;2023-04-03T08:54:51;7.23;;;4.03;;
41514;SDS011;27247;48.020;16.720;2023-04-03T08:59:06;8.05;;;4.47;;
41514;SDS011;27247;48.020;16.720;2023-04-03T09:03:22;6.18;;;3.35;;
41514;SDS011;27247;48.020;16.720;2023-04-03T09:07:35;5.63;;;3.80;;
41514;SDS011;27247;48.020;16.720;2023-04-03T09:12:19;6.63;;;4.25;;
41514;SDS011;27247;48.020;16.720;2023-04-03T09:16:43;10.60;;;3.80;;
41514;SDS011;27247;48.020;16.720;2023-04-03T09:21:13;8.00;;;3.53;;
41514;SDS011;27247;48.020;16.720;2023-04-03T09:25:37;6.28;;;3.58;;
41514;SDS011;27247;48.020;16.720;2023-04-03T09:29:48;5.45;;;3.33;;
41514;SDS011;27247;48.020;16.720;2023-04-03T09:34:03;6.32;;;3.70;;
41514;SDS011;27247;48.020;16.720;2023-04-03T09:38:20;5.07;;;3.38;;
41514;SDS011;27247;48.020;16.720;2023-04-03T09:42:32;5.18;;;3.20;;
41514;SDS011;27247;48.020;16.720;2023-04-03T09:46:42;5.78;;;3.17;;
41514;SDS011;27247;48.020;16.720;2023-04-03T09:50:57;3.95;;;3.00;;
41514;SDS011;27247;48.020;16.720;2023-04-03T09:55:22;4.93;;;3.17;;
41514;SDS011;27247;48.020;16.720;2023-04-03T09:59:42;8.77;;;3.42;;
41514;SDS011;27247;48.020;16.720;2023-04-03T10:04:30;6.40;;;3.22;;
41514;SDS011;27247;48.020;16.720;2023-04-03T10:08:35;5.45;;;2.90;;
41514;SDS011;27247;48.020;16.720;2023-04-03T10:12:46;3.50;;;2.55;;
41514;SDS011;27247;48.020;16.720;2023-04-03T10:16:59;6.97;;;3.03;;
41514;SDS011;27247;48.020;16.720;2023-04-03T10:25:47;3.90;;;3.17;;
41514;SDS011;27247;48.020;16.720;2023-04-03T10:30:23;7.28;;;3.10;;
41514;SDS011;27247;48.020;16.720;2023-04-03T10:35:02;4.95;;;3.13;;
41514;SDS011;27247;48.020;16.720;2023-04-03T10:52:39;4.10;;;3.22;;
41514;SDS011;27247;48.020;16.720;2023-04-03T10:57:04;6.03;;;3.25;;
41514;SDS011;27247;48.020;16.720;2023-04-03T11:01:22;4.72;;;3.20;;
41514;SDS011;27247;48.020;16.720;2023-04-03T11:10:03;6.45;;;3.58;;
41514;SDS011;27247;48.020;16.720;2023-04-03T11:18:35;7.13;;;4.17;;
41514;SDS011;27247;48.020;16.720;2023-04-03T11:22:54;4.65;;;3.35;;
41514;SDS011;27247;48.020;16.720;2023-04-03T11:27:15;6.45;;;3.28;;
41514;SDS011;27247;48.020;16.720;2023-04-03T11:35:47;4.80;;;3.10;;
41514;SDS011;27247;48.020;16.720;2023-04-03T11:44:37;7.38;;;4.15;;
41514;SDS011;27247;48.020;16.720;2023-04-03T11:48:49;6.68;;;4.07;;
41514;SDS011;27247;48.020;16.720;2023-04-03T11:53:02;4.57;;;3.10;;
41514;SDS011;27247;48.020;16.720;2023-04-03T11:57:43;5.60;;;3.25;;
41514;SDS011;27247;48.020;16.720;2023-04-03T12:01:56;4.88;;;2.83;;
41514;SDS011;27247;48.020;16.720;2023-04-03T12:10:23;5.45;;;3.15;;
41514;SDS011;27247;48.020;16.720;2023-04-03T12:14:33;6.72;;;3.53;;
41514;SDS011;27247;48.020;16.720;2023-04-03T12:23:27;6.28;;;3.13;;
41514;SDS011;27247;48.020;16.720;2023-04-03T12:27:42;4.53;;;2.70;;
41514;SDS011;27247;48.020;16.720;2023-04-03T12:32:04;3.38;;;2.33;;
41514;SDS011;27247;48.020;16.720;2023-04-03T12:36:37;4.43;;;3.03;;
41514;SDS011;27247;48.020;16.720;2023-04-03T12:45:21;5.03;;;3.75;;
41514;SDS011;27247;48.020;16.720;2023-04-03T12:49:35;5.25;;;3.30;;
41514;SDS011;27247;48.020;16.720;2023-04-03T12:53:50;5.70;;;3.47;;
41514;SDS011;27247;48.020;16.720;2023-04-03T12:58:38;5.80;;;2.95;;
41514;SDS011;27247;48.020;16.720;2023-04-03T13:02:43;5.53;;;2.92;;
41514;SDS011;27247;48.020;16.720;2023-04-03T13:06:55;5.03;;;3.25;;
41514;SDS011;27247;48.020;16.720;2023-04-03T13:11:06;8.43;;;3.13;;
41514;SDS011;27247;48.020;16.720;2023-04-03T13:15:30;4.43;;;2.53;;
41514;SDS011;27247;48.020;16.720;2023-04-03T13:19:51;4.22;;;2.65;;
41514;SDS011;27247;48.020;16.720;2023-04-03T13:24:02;6.85;;;3.25;;
41514;SDS011;27247;48.020;16.720;2023-04-03T13:28:15;4.80;;;3.13;;
41514;SDS011;27247;48.020;16.720;2023-04-03T13:32:29;3.95;;;3.10;;
41514;SDS011;27247;48.020;16.720;2023-04-03T13:36:45;7.00;;;3.63;;
41514;SDS011;27247;48.020;16.720;2023-04-03T13:41:21;4.28;;;3.72;;
41514;SDS011;27247;48.020;16.720;2023-04-03T13:45:35;4.50;;;3.10;;
41514;SDS011;27247;48.020;16.720;2023-04-03T13:49:58;6.55;;;3.63;;
41514;SDS011;27247;48.020;16.720;2023-04-03T13:54:23;3.80;;;3.00;;
41514;SDS011;27247;48.020;16.720;2023-04-03T13:58:39;5.00;;;3.35;;
41514;SDS011;27247;48.020;16.720;2023-04-03T14:02:50;6.80;;;4.40;;
41514;SDS011;27247;48.020;16.720;2023-04-03T14:07:06;10.65;;;3.10;;
41514;SDS011;27247;48.020;16.720;2023-04-03T14:11:21;9.05;;;3.38;;
41514;SDS011;27247;48.020;16.720;2023-04-03T14:15:34;7.27;;;2.53;;
41514;SDS011;27247;48.020;16.720;2023-04-03T14:19:45;6.57;;;3.55;;
41514;SDS011;27247;48.020;16.720;2023-04-03T14:23:57;8.63;;;3.85;;
41514;SDS011;27247;48.020;16.720;2023-04-03T14:28:41;6.32;;;3.30;;
41514;SDS011;27247;48.020;16.720;2023-04-03T14:32:45;5.53;;;3.10;;
41514;SDS011;27247;48.020;16.720;2023-04-03T14:36:56;7.65;;;3.35;;
41514;SDS011;27247;48.020;16.720;2023-04-03T14:41:07;6.38;;;3.42;;
41514;SDS011;27247;48.020;16.720;2023-04-03T14:45:18;4.72;;;3.05;;
41514;SDS011;27247;48.020;16.720;2023-04-03T14:49:28;6.72;;;4.55;;
41514;SDS011;27247;48.020;16.720;2023-04-03T14:53:39;5.05;;;2.80;;
41514;SDS011;27247;48.020;16.720;2023-04-03T14:57:51;6.00;;;2.80;;
41514;SDS011;27247;48.020;16.720;2023-04-03T15:02:05;5.07;;;2.97;;
41514;SDS011;27247;48.020;16.720;2023-04-03T15:06:34;3.92;;;2.90;;
41514;SDS011;27247;48.020;16.720;2023-04-03T15:10:45;5.03;;;3.13;;
41514;SDS011;27247;48.020;16.720;2023-04-03T15:14:55;5.85;;;2.83;;
41514;SDS011;27247;48.020;16.720;2023-04-03T15:19:05;6.20;;;2.80;;
41514;SDS011;27247;48.020;16.720;2023-04-03T15:23:16;5.70;;;3.03;;
41514;SDS011;27247;48.020;16.720;2023-04-03T15:27:27;8.07;;;4.90;;
41514;SDS011;27247;48.020;16.720;2023-04-03T15:31:38;5.97;;;3.15;;
41514;SDS011;27247;48.020;16.720;2023-04-03T15:35:48;4.72;;;2.60;;
41514;SDS011;27247;48.020;16.720;2023-04-03T15:39:59;3.38;;;2.60;;
41514;SDS011;27247;48.020;16.720;2023-04-03T15:44:09;6.47;;;3.03;;
41514;SDS011;27247;48.020;16.720;2023-04-03T15:48:20;7.68;;;2.70;;
41514;SDS011;27247;48.020;16.720;2023-04-03T15:52:30;4.93;;;2.90;;
41514;SDS011;27247;48.020;16.720;2023-04-03T15:56:40;4.60;;;2.83;;
41514;SDS011;27247;48.020;16.720;2023-04-03T16:00:51;5.57;;;3.92;;
41514;SDS011;27247;48.020;16.720;2023-04-03T16:05:01;3.80;;;2.70;;
41514;SDS011;27247;48.020;16.720;2023-04-03T16:09:12;5.88;;;2.80;;
41514;SDS011;27247;48.020;16.720;2023-04-03T16:13:23;5.35;;;2.83;;
41514;SDS011;27247;48.020;16.720;2023-04-03T16:17:34;7.57;;;3.28;;
41514;SDS011;27247;48.020;16.720;2023-04-03T16:21:45;6.68;;;3.00;;
41514;SDS011;27247;48.020;16.720;2023-04-03T16:25:56;9.18;;;3.42;;
41514;SDS011;27247;48.020;16.720;2023-04-03T16:30:07;3.88;;;2.70;;
41514;SDS011;27247;48.020;16.720;2023-04-03T16:34:18;4.93;;;2.97;;
41514;SDS011;27247;48.020;16.720;2023-04-03T16:38:29;6.07;;;2.75;;
41514;SDS011;27247;48.020;16.720;2023-04-03T16:42:39;5.93;;;2.95;;
41514;SDS011;27247;48.020;16.720;2023-04-03T16:46:50;7.10;;;2.75;;
41514;SDS011;27247;48.020;16.720;2023-04-03T16:51:00;7.90;;;4.13;;
41514;SDS011;27247;48.020;16.720;2023-04-03T16:55:11;8.43;;;3.10;;
41514;SDS011;27247;48.020;16.720;2023-04-03T16:59:22;6.65;;;3.45;;
41514;SDS011;27247;48.020;16.720;2023-04-03T17:03:32;5.57;;;3.00;;
41514;SDS011;27247;48.020;16.720;2023-04-03T17:07:43;5.72;;;3.88;;
41514;SDS011;27247;48.020;16.720;2023-04-03T17:11:53;6.88;;;3.40;;
41514;SDS011;27247;48.020;16.720;2023-04-03T17:16:04;5.55;;;2.72;;
41514;SDS011;27247;48.020;16.720;2023-04-03T17:20:17;7.53;;;3.70;;
41514;SDS011;27247;48.020;16.720;2023-04-03T17:24:28;4.47;;;2.60;;
41514;SDS011;27247;48.020;16.720;2023-04-03T17:28:39;5.82;;;2.90;;
41514;SDS011;27247;48.020;16.720;2023-04-03T17:32:50;5.53;;;2.58;;
41514;SDS011;27247;48.020;16.720;2023-04-03T17:37:01;4.40;;;2.88;;
41514;SDS011;27247;48.020;16.720;2023-04-03T17:41:12;5.10;;;2.80;;
41514;SDS011;27247;48.020;16.720;2023-04-03T17:45:22;4.95;;;2.78;;
41514;SDS011;27247;48.020;16.720;2023-04-03T17:49:33;5.78;;;3.00;;
41514;SDS011;27247;48.020;16.720;2023-04-03T17:53:43;12.98;;;5.35;;
41514;SDS011;27247;48.020;16.720;2023-04-03T17:57:54;8.80;;;4.18;;
41514;SDS011;27247;48.020;16.720;2023-04-03T18:02:04;4.93;;;3.58;;
41514;SDS011;27247;48.020;16.720;2023-04-03T18:06:16;7.10;;;3.38;;
41514;SDS011;27247;48.020;16.720;2023-04-03T18:10:29;4.93;;;2.75;;
41514;SDS011;27247;48.020;16.720;2023-04-03T18:14:40;7.30;;;3.25;;
41514;SDS011;27247;48.020;16.720;2023-04-03T18:18:51;7.00;;;3.13;;
41514;SDS011;27247;48.020;16.720;2023-04-03T18:23:02;6.65;;;2.92;;
41514;SDS011;27247;48.020;16.720;2023-04-03T18:27:13;6.50;;;4.38;;
41514;SDS011;27247;48.020;16.720;2023-04-03T18:31:25;7.53;;;3.05;;
41514;SDS011;27247;48.020;16.720;2023-04-03T18:35:39;5.20;;;3.00;;
41514;SDS011;27247;48.020;16.720;2023-04-03T18:39:50;8.40;;;2.72;;
41514;SDS011;27247;48.020;16.720;2023-04-03T18:44:02;5.13;;;2.80;;
41514;SDS011;27247;48.020;16.720;2023-04-03T18:48:16;4.97;;;3.03;;
41514;SDS011;27247;48.020;16.720;2023-04-03T18:52:27;4.78;;;3.15;;
41514;SDS011;27247;48.020;16.720;2023-04-03T18:56:38;4.97;;;3.50;;
41514;SDS011;27247;48.020;16.720;2023-04-03T19:00:48;5.60;;;2.95;;
41514;SDS011;27247;48.020;16.720;2023-04-03T19:05:00;5.50;;;2.92;;
41514;SDS011;27247;48.020;16.720;2023-04-03T19:09:10;5.15;;;3.00;;
41514;SDS011;27247;48.020;16.720;2023-04-03T19:13:21;5.35;;;2.65;;
41514;SDS011;27247;48.020;16.720;2023-04-03T19:17:31;5.82;;;2.42;;
41514;SDS011;27247;48.020;16.720;2023-04-03T19:21:42;5.05;;;2.75;;
41514;SDS011;27247;48.020;16.720;2023-04-03T19:25:59;5.18;;;2.63;;
41514;SDS011;27247;48.020;16.720;2023-04-03T19:34:23;6.22;;;3.40;;
41514;SDS011;27247;48.020;16.720;2023-04-03T19:38:37;6.10;;;3.03;;
41514;SDS011;27247;48.020;16.720;2023-04-03T19:42:48;6.68;;;2.92;;
41514;SDS011;27247;48.020;16.720;2023-04-03T19:46:59;4.13;;;2.70;;
41514;SDS011;27247;48.020;16.720;2023-04-03T19:51:11;6.80;;;3.70;;
41514;SDS011;27247;48.020;16.720;2023-04-03T19:55:21;5.95;;;3.20;;
41514;SDS011;27247;48.020;16.720;2023-04-03T19:59:34;11.75;;;5.57;;
41514;SDS011;27247;48.020;16.720;2023-04-03T20:03:45;11.85;;;5.38;;
41514;SDS011;27247;48.020;16.720;2023-04-03T20:07:56;6.50;;;3.83;;
41514;SDS011;27247;48.020;16.720;2023-04-03T20:12:09;5.90;;;2.70;;
41514;SDS011;27247;48.020;16.720;2023-04-03T20:16:21;7.93;;;3.50;;
41514;SDS011;27247;48.020;16.720;2023-04-03T20:20:34;6.78;;;3.08;;
41514;SDS011;27247;48.020;16.720;2023-04-03T20:24:50;6.45;;;4.20;;
41514;SDS011;27247;48.020;16.720;2023-04-03T20:29:01;8.27;;;3.15;;
41514;SDS011;27247;48.020;16.720;2023-04-03T20:33:12;5.88;;;3.00;;
41514;SDS011;27247;48.020;16.720;2023-04-03T20:37:22;9.07;;;3.40;;
41514;SDS011;27247;48.020;16.720;2023-04-03T20:41:34;7.03;;;3.88;;
41514;SDS011;27247;48.020;16.720;2023-04-03T20:45:47;7.07;;;3.65;;
41514;SDS011;27247;48.020;16.720;2023-04-03T20:49:58;5.30;;;2.97;;
41514;SDS011;27247;48.020;16.720;2023-04-03T20:54:09;6.80;;;3.05;;
41514;SDS011;27247;48.020;16.720;2023-04-03T20:58:19;5.97;;;3.08;;
41514;SDS011;27247;48.020;16.720;2023-04-03T21:02:33;4.78;;;3.28;;
41514;SDS011;27247;48.020;16.720;2023-04-03T21:20:30;9.70;;;3.85;;
41514;SDS011;27247;48.020;16.720;2023-04-03T21:24:41;6.43;;;3.70;;
41514;SDS011;27247;48.020;16.720;2023-04-03T21:28:53;7.10;;;3.25;;
41514;SDS011;27247;48.020;16.720;2023-04-03T21:33:04;6.43;;;4.07;;
41514;SDS011;27247;48.020;16.720;2023-04-03T21:37:14;4.75;;;3.25;;
41514;SDS011;27247;48.020;16.720;2023-04-03T21:41:25;6.03;;;3.15;;
41514;SDS011;27247;48.020;16.720;2023-04-03T21:45:35;10.05;;;3.10;;
41514;SDS011;27247;48.020;16.720;2023-04-03T21:49:47;7.03;;;3.28;;
41514;SDS011;27247;48.020;16.720;2023-04-03T21:53:58;5.13;;;2.72;;
41514;SDS011;27247;48.020;16.720;2023-04-03T21:58:08;10.07;;;3.17;;
41514;SDS011;27247;48.020;16.720;2023-04-03T22:02:19;6.57;;;3.10;;
41514;SDS011;27247;48.020;16.720;2023-04-03T22:06:29;7.72;;;3.28;;
41514;SDS011;27247;48.020;16.720;2023-04-03T22:10:40;6.45;;;3.47;;
41514;SDS011;27247;48.020;16.720;2023-04-03T22:14:51;8.20;;;3.50;;
41514;SDS011;27247;48.020;16.720;2023-04-03T22:19:01;6.57;;;3.55;;
41514;SDS011;27247;48.020;16.720;2023-04-03T22:23:12;9.52;;;3.00;;
41514;SDS011;27247;48.020;16.720;2023-04-03T22:27:22;6.25;;;3.22;;
41514;SDS011;27247;48.020;16.720;2023-04-03T22:31:32;6.40;;;3.55;;
41514;SDS011;27247;48.020;16.720;2023-04-03T22:35:46;6.10;;;3.03;;
41514;SDS011;27247;48.020;16.720;2023-04-03T22:39:58;5.95;;;2.85;;
41514;SDS011;27247;48.020;16.720;2023-04-03T22:44:08;6.03;;;3.22;;
41514;SDS011;27247;48.020;16.720;2023-04-03T22:48:19;7.80;;;3.10;;
41514;SDS011;27247;48.020;16.720;2023-04-03T22:52:30;4.40;;;3.15;;
41514;SDS011;27247;48.020;16.720;2023-04-03T22:56:41;8.03;;;3.30;;
41514;SDS011;27247;48.020;16.720;2023-04-03T23:00:52;5.85;;;2.90;;
41514;SDS011;27247;48.020;16.720;2023-04-03T23:05:03;5.97;;;2.92;;
41514;SDS011;27247;48.020;16.720;2023-04-03T23:09:14;5.20;;;3.13;;
41514;SDS011;27247;48.020;16.720;2023-04-03T23:13:24;7.30;;;3.03;;
41514;SDS011;27247;48.020;16.720;2023-04-03T23:17:35;6.25;;;3.55;;
41514;SDS011;27247;48.020;16.720;2023-04-03T23:21:46;9.32;;;3.72;;
41514;SDS011;27247;48.020;16.720;2023-04-03T23:25:58;5.77;;;2.97;;
41514;SDS011;27247;48.020;16.720;2023-04-03T23:30:10;4.93;;;3.10;;
41514;SDS011;27247;48.020;16.720;2023-04-03T23:34:21;8.90;;;3.35;;
41514;SDS011;27247;48.020;16.720;2023-04-03T23:38:31;6.80;;;3.00;;
41514;SDS011;27247;48.020;16.720;2023-04-03T23:42:42;5.53;;;3.50;;
41514;SDS011;27247;48.020;16.720;2023-04-03T23:46:52;6.68;;;2.85;;
41514;SDS011;27247;48.020;16.720;2023-04-03T23:51:04;5.00;;;2.83;;
41514;SDS011;27247;48.020;16.720;2023-04-03T23:55:15;5.57;;;3.35;;
41514;SDS011;27247;48.020;16.720;2023-04-03T23:59:26;6.80;;;3.33;;
